sensor_id;sensor_type;location;lat;lon;timestamp;pressure;altitude;pressure_sealevel;temperature
11321;BMP180;5715;48.234;14.320;2023-03-31T00:02:04;98232.00;;;14.40
11321;BMP180;5715;48.234;14.320;2023-03-31T00:04:59;98232.00;;;14.40
11321;BMP180;5715;48.234;14.320;2023-03-31T00:07:47;98227.00;;;14.50
11321;BMP180;5715;48.234;14.320;2023-03-31T00:10:45;98221.00;;;14.60
11321;BMP180;5715;48.234;14.320;2023-03-31T00:13:33;98213.00;;;14.60
11321;BMP180;5715;48.234;14.320;2023-03-31T00:16:22;98211.00;;;14.60
11321;BMP180;5715;48.234;14.320;2023-03-31T00:19:11;98202.00;;;14.70
11321;BMP180;5715;48.234;14.320;2023-03-31T00:22:04;98201.00;;;14.60
11321;BMP180;5715;48.234;14.320;2023-03-31T00:24:52;98212.00;;;14.60
11321;BMP180;5715;48.234;14.320;2023-03-31T00:27:44;98201.00;;;14.60
11321;BMP180;5715;48.234;14.320;2023-03-31T00:30:32;98205.00;;;14.80
11321;BMP180;5715;48.234;14.320;2023-03-31T00:33:20;98194.00;;;14.80
11321;BMP180;5715;48.234;14.320;2023-03-31T00:36:08;98193.00;;;14.80
11321;BMP180;5715;48.234;14.320;2023-03-31T00:38:59;98180.00;;;14.80
11321;BMP180;5715;48.234;14.320;2023-03-31T00:41:50;98178.00;;;14.90
11321;BMP180;5715;48.234;14.320;2023-03-31T00:48:07;98174.00;;;14.80
11321;BMP180;5715;48.234;14.320;2023-03-31T00:51:04;98174.00;;;14.70
11321;BMP180;5715;48.234;14.320;2023-03-31T00:54:02;98172.00;;;14.60
11321;BMP180;5715;48.234;14.320;2023-03-31T00:56:54;98172.00;;;14.70
11321;BMP180;5715;48.234;14.320;2023-03-31T01:00:00;98163.00;;;14.40
11321;BMP180;5715;48.234;14.320;2023-03-31T01:02:55;98154.00;;;14.50
11321;BMP180;5715;48.234;14.320;2023-03-31T01:06:01;98154.00;;;14.40
11321;BMP180;5715;48.234;14.320;2023-03-31T01:08:51;98139.00;;;14.30
11321;BMP180;5715;48.234;14.320;2023-03-31T01:11:39;98134.00;;;14.20
11321;BMP180;5715;48.234;14.320;2023-03-31T01:14:28;98126.00;;;14.10
11321;BMP180;5715;48.234;14.320;2023-03-31T01:17:20;98112.00;;;14.10
11321;BMP180;5715;48.234;14.320;2023-03-31T01:27:42;98095.00;;;14.00
11321;BMP180;5715;48.234;14.320;2023-03-31T01:34:56;98080.00;;;13.90
11321;BMP180;5715;48.234;14.320;2023-03-31T01:48:16;98073.00;;;13.90
11321;BMP180;5715;48.234;14.320;2023-03-31T01:51:28;98067.00;;;13.80
11321;BMP180;5715;48.234;14.320;2023-03-31T01:54:38;98063.00;;;13.70
11321;BMP180;5715;48.234;14.320;2023-03-31T01:57:35;98068.00;;;13.60
11321;BMP180;5715;48.234;14.320;2023-03-31T02:00:30;98057.00;;;13.60
11321;BMP180;5715;48.234;14.320;2023-03-31T02:03:32;98056.00;;;13.60
11321;BMP180;5715;48.234;14.320;2023-03-31T02:06:30;98045.00;;;13.50
11321;BMP180;5715;48.234;14.320;2023-03-31T02:09:31;98054.00;;;13.40
11321;BMP180;5715;48.234;14.320;2023-03-31T02:12:25;98050.00;;;13.40
11321;BMP180;5715;48.234;14.320;2023-03-31T02:15:22;98046.00;;;13.50
11321;BMP180;5715;48.234;14.320;2023-03-31T02:18:17;98036.00;;;13.50
11321;BMP180;5715;48.234;14.320;2023-03-31T02:21:08;98022.00;;;13.50
11321;BMP180;5715;48.234;14.320;2023-03-31T02:24:01;98012.00;;;13.60
11321;BMP180;5715;48.234;14.320;2023-03-31T02:27:11;98017.00;;;13.70
11321;BMP180;5715;48.234;14.320;2023-03-31T02:30:02;98010.00;;;13.70
11321;BMP180;5715;48.234;14.320;2023-03-31T02:32:50;98026.00;;;13.80
11321;BMP180;5715;48.234;14.320;2023-03-31T02:35:38;98014.00;;;13.90
11321;BMP180;5715;48.234;14.320;2023-03-31T02:38:26;98007.00;;;13.90
11321;BMP180;5715;48.234;14.320;2023-03-31T02:41:14;98008.00;;;14.00
11321;BMP180;5715;48.234;14.320;2023-03-31T02:44:02;98002.00;;;14.00
11321;BMP180;5715;48.234;14.320;2023-03-31T02:46:50;97995.00;;;13.90
11321;BMP180;5715;48.234;14.320;2023-03-31T02:49:44;97993.00;;;14.10
11321;BMP180;5715;48.234;14.320;2023-03-31T03:02:25;97971.00;;;14.00
11321;BMP180;5715;48.234;14.320;2023-03-31T03:05:27;97969.00;;;14.00
11321;BMP180;5715;48.234;14.320;2023-03-31T03:08:46;97967.00;;;13.70
11321;BMP180;5715;48.234;14.320;2023-03-31T03:12:11;97978.00;;;13.70
11321;BMP180;5715;48.234;14.320;2023-03-31T03:15:34;97959.00;;;13.60
11321;BMP180;5715;48.234;14.320;2023-03-31T03:18:23;97963.00;;;13.60
11321;BMP180;5715;48.234;14.320;2023-03-31T03:21:11;97966.00;;;13.50
11321;BMP180;5715;48.234;14.320;2023-03-31T03:23:58;97954.00;;;13.60
11321;BMP180;5715;48.234;14.320;2023-03-31T03:26:47;97956.00;;;13.60
11321;BMP180;5715;48.234;14.320;2023-03-31T03:29:36;97949.00;;;13.60
11321;BMP180;5715;48.234;14.320;2023-03-31T03:32:23;97950.00;;;13.50
11321;BMP180;5715;48.234;14.320;2023-03-31T03:35:12;97945.00;;;13.60
11321;BMP180;5715;48.234;14.320;2023-03-31T03:37:59;97941.00;;;13.50
11321;BMP180;5715;48.234;14.320;2023-03-31T03:40:52;97937.00;;;13.50
11321;BMP180;5715;48.234;14.320;2023-03-31T03:43:40;97921.00;;;13.50
11321;BMP180;5715;48.234;14.320;2023-03-31T03:46:27;97929.00;;;13.50
11321;BMP180;5715;48.234;14.320;2023-03-31T03:49:15;97929.00;;;13.60
11321;BMP180;5715;48.234;14.320;2023-03-31T03:52:03;97925.00;;;13.50
11321;BMP180;5715;48.234;14.320;2023-03-31T03:54:51;97912.00;;;13.50
11321;BMP180;5715;48.234;14.320;2023-03-31T03:57:38;97915.00;;;13.50
11321;BMP180;5715;48.234;14.320;2023-03-31T04:00:26;97917.00;;;13.50
11321;BMP180;5715;48.234;14.320;2023-03-31T04:03:13;97910.00;;;13.50
11321;BMP180;5715;48.234;14.320;2023-03-31T04:06:01;97905.00;;;13.40
11321;BMP180;5715;48.234;14.320;2023-03-31T04:08:49;97895.00;;;13.50
11321;BMP180;5715;48.234;14.320;2023-03-31T04:11:36;97893.00;;;13.50
11321;BMP180;5715;48.234;14.320;2023-03-31T04:14:24;97893.00;;;13.40
11321;BMP180;5715;48.234;14.320;2023-03-31T04:17:12;97902.00;;;13.30
11321;BMP180;5715;48.234;14.320;2023-03-31T04:20:06;97887.00;;;13.30
11321;BMP180;5715;48.234;14.320;2023-03-31T04:22:56;97890.00;;;13.20
11321;BMP180;5715;48.234;14.320;2023-03-31T04:25:43;97894.00;;;13.40
11321;BMP180;5715;48.234;14.320;2023-03-31T04:28:32;97885.00;;;13.30
11321;BMP180;5715;48.234;14.320;2023-03-31T04:31:21;97883.00;;;13.30
11321;BMP180;5715;48.234;14.320;2023-03-31T04:34:14;97872.00;;;13.40
11321;BMP180;5715;48.234;14.320;2023-03-31T04:37:03;97868.00;;;13.50
11321;BMP180;5715;48.234;14.320;2023-03-31T04:39:50;97861.00;;;13.50
11321;BMP180;5715;48.234;14.320;2023-03-31T04:42:43;97863.00;;;13.50
11321;BMP180;5715;48.234;14.320;2023-03-31T04:45:31;97866.00;;;13.40
11321;BMP180;5715;48.234;14.320;2023-03-31T04:48:19;97865.00;;;13.50
11321;BMP180;5715;48.234;14.320;2023-03-31T04:51:07;97856.00;;;13.50
11321;BMP180;5715;48.234;14.320;2023-03-31T04:53:55;97847.00;;;13.50
11321;BMP180;5715;48.234;14.320;2023-03-31T04:56:42;97842.00;;;13.50
11321;BMP180;5715;48.234;14.320;2023-03-31T04:59:30;97838.00;;;13.60
11321;BMP180;5715;48.234;14.320;2023-03-31T05:02:18;97844.00;;;13.30
11321;BMP180;5715;48.234;14.320;2023-03-31T05:05:11;97844.00;;;13.40
11321;BMP180;5715;48.234;14.320;2023-03-31T05:07:59;97836.00;;;13.40
11321;BMP180;5715;48.234;14.320;2023-03-31T05:10:47;97831.00;;;13.30
11321;BMP180;5715;48.234;14.320;2023-03-31T05:13:34;97835.00;;;13.30
11321;BMP180;5715;48.234;14.320;2023-03-31T05:16:22;97837.00;;;13.20
11321;BMP180;5715;48.234;14.320;2023-03-31T05:19:10;97829.00;;;13.30
11321;BMP180;5715;48.234;14.320;2023-03-31T05:21:57;97836.00;;;13.40
11321;BMP180;5715;48.234;14.320;2023-03-31T05:24:45;97834.00;;;13.30
11321;BMP180;5715;48.234;14.320;2023-03-31T05:27:34;97829.00;;;13.40
11321;BMP180;5715;48.234;14.320;2023-03-31T05:30:22;97827.00;;;13.50
11321;BMP180;5715;48.234;14.320;2023-03-31T05:33:12;97817.00;;;13.70
11321;BMP180;5715;48.234;14.320;2023-03-31T05:36:01;97826.00;;;13.70
11321;BMP180;5715;48.234;14.320;2023-03-31T05:38:48;97826.00;;;13.80
11321;BMP180;5715;48.234;14.320;2023-03-31T05:41:36;97819.00;;;13.90
11321;BMP180;5715;48.234;14.320;2023-03-31T05:44:23;97817.00;;;14.00
11321;BMP180;5715;48.234;14.320;2023-03-31T05:47:11;97810.00;;;14.10
11321;BMP180;5715;48.234;14.320;2023-03-31T05:49:59;97806.00;;;14.10
11321;BMP180;5715;48.234;14.320;2023-03-31T05:52:47;97798.00;;;14.30
11321;BMP180;5715;48.234;14.320;2023-03-31T05:55:38;97784.00;;;14.30
11321;BMP180;5715;48.234;14.320;2023-03-31T05:58:27;97781.00;;;14.60
11321;BMP180;5715;48.234;14.320;2023-03-31T06:01:16;97786.00;;;14.80
11321;BMP180;5715;48.234;14.320;2023-03-31T06:04:09;97796.00;;;14.90
11321;BMP180;5715;48.234;14.320;2023-03-31T06:06:57;97788.00;;;15.00
11321;BMP180;5715;48.234;14.320;2023-03-31T06:09:45;97788.00;;;15.30
11321;BMP180;5715;48.234;14.320;2023-03-31T06:12:33;97792.00;;;15.40
11321;BMP180;5715;48.234;14.320;2023-03-31T06:15:20;97774.00;;;15.50
11321;BMP180;5715;48.234;14.320;2023-03-31T06:18:08;97787.00;;;15.70
11321;BMP180;5715;48.234;14.320;2023-03-31T06:20:57;97785.00;;;15.60
11321;BMP180;5715;48.234;14.320;2023-03-31T06:23:45;97760.00;;;15.60
11321;BMP180;5715;48.234;14.320;2023-03-31T06:26:33;97759.00;;;15.70
11321;BMP180;5715;48.234;14.320;2023-03-31T06:29:22;97756.00;;;15.80
11321;BMP180;5715;48.234;14.320;2023-03-31T06:32:10;97759.00;;;16.00
11321;BMP180;5715;48.234;14.320;2023-03-31T06:34:58;97741.00;;;16.10
11321;BMP180;5715;48.234;14.320;2023-03-31T06:37:45;97739.00;;;16.30
11321;BMP180;5715;48.234;14.320;2023-03-31T06:40:33;97728.00;;;16.60
11321;BMP180;5715;48.234;14.320;2023-03-31T06:43:20;97723.00;;;16.80
11321;BMP180;5715;48.234;14.320;2023-03-31T06:46:09;97722.00;;;16.80
11321;BMP180;5715;48.234;14.320;2023-03-31T06:48:57;97726.00;;;17.00
11321;BMP180;5715;48.234;14.320;2023-03-31T06:51:45;97723.00;;;17.10
11321;BMP180;5715;48.234;14.320;2023-03-31T06:54:33;97717.00;;;16.90
11321;BMP180;5715;48.234;14.320;2023-03-31T06:57:20;97711.00;;;17.10
11321;BMP180;5715;48.234;14.320;2023-03-31T07:00:08;97717.00;;;17.40
11321;BMP180;5715;48.234;14.320;2023-03-31T07:02:57;97701.00;;;17.50
11321;BMP180;5715;48.234;14.320;2023-03-31T07:05:53;97689.00;;;17.50
11321;BMP180;5715;48.234;14.320;2023-03-31T07:08:41;97687.00;;;17.40
11321;BMP180;5715;48.234;14.320;2023-03-31T07:11:29;97685.00;;;17.30
11321;BMP180;5715;48.234;14.320;2023-03-31T07:14:16;97700.00;;;17.30
11321;BMP180;5715;48.234;14.320;2023-03-31T07:17:04;97699.00;;;17.10
11321;BMP180;5715;48.234;14.320;2023-03-31T07:19:52;97678.00;;;17.00
11321;BMP180;5715;48.234;14.320;2023-03-31T07:22:41;97674.00;;;17.30
11321;BMP180;5715;48.234;14.320;2023-03-31T07:25:30;97671.00;;;17.20
11321;BMP180;5715;48.234;14.320;2023-03-31T07:28:18;97661.00;;;17.00
11321;BMP180;5715;48.234;14.320;2023-03-31T07:31:15;97660.00;;;17.20
11321;BMP180;5715;48.234;14.320;2023-03-31T07:34:03;97652.00;;;17.10
11321;BMP180;5715;48.234;14.320;2023-03-31T07:36:54;97642.00;;;17.40
11321;BMP180;5715;48.234;14.320;2023-03-31T07:39:42;97638.00;;;17.30
11321;BMP180;5715;48.234;14.320;2023-03-31T07:42:31;97630.00;;;17.40
11321;BMP180;5715;48.234;14.320;2023-03-31T07:45:21;97622.00;;;17.10
11321;BMP180;5715;48.234;14.320;2023-03-31T07:48:09;97609.00;;;17.40
11321;BMP180;5715;48.234;14.320;2023-03-31T07:50:57;97606.00;;;17.40
11321;BMP180;5715;48.234;14.320;2023-03-31T07:53:45;97610.00;;;17.50
11321;BMP180;5715;48.234;14.320;2023-03-31T07:56:33;97602.00;;;17.50
11321;BMP180;5715;48.234;14.320;2023-03-31T07:59:20;97605.00;;;17.30
11321;BMP180;5715;48.234;14.320;2023-03-31T08:02:16;97603.00;;;17.40
11321;BMP180;5715;48.234;14.320;2023-03-31T08:05:05;97597.00;;;17.60
11321;BMP180;5715;48.234;14.320;2023-03-31T08:07:53;97582.00;;;17.50
11321;BMP180;5715;48.234;14.320;2023-03-31T08:10:41;97569.00;;;17.50
11321;BMP180;5715;48.234;14.320;2023-03-31T08:13:29;97564.00;;;17.80
11321;BMP180;5715;48.234;14.320;2023-03-31T08:16:16;97569.00;;;18.00
11321;BMP180;5715;48.234;14.320;2023-03-31T08:19:05;97568.00;;;18.00
11321;BMP180;5715;48.234;14.320;2023-03-31T08:21:53;97568.00;;;18.40
11321;BMP180;5715;48.234;14.320;2023-03-31T08:24:40;97569.00;;;18.00
11321;BMP180;5715;48.234;14.320;2023-03-31T08:27:28;97555.00;;;18.00
11321;BMP180;5715;48.234;14.320;2023-03-31T08:30:19;97541.00;;;18.60
11321;BMP180;5715;48.234;14.320;2023-03-31T08:33:07;97519.00;;;18.40
11321;BMP180;5715;48.234;14.320;2023-03-31T08:35:55;97530.00;;;18.60
11321;BMP180;5715;48.234;14.320;2023-03-31T08:38:43;97531.00;;;19.30
11321;BMP180;5715;48.234;14.320;2023-03-31T08:41:59;97532.00;;;19.80
11321;BMP180;5715;48.234;14.320;2023-03-31T08:51:26;97537.00;;;19.90
11321;BMP180;5715;48.234;14.320;2023-03-31T08:54:45;97534.00;;;19.90
11321;BMP180;5715;48.234;14.320;2023-03-31T08:57:45;97525.00;;;19.40
11321;BMP180;5715;48.234;14.320;2023-03-31T09:01:05;97529.00;;;18.60
11321;BMP180;5715;48.234;14.320;2023-03-31T09:17:19;97558.00;;;18.50
11321;BMP180;5715;48.234;14.320;2023-03-31T09:20:22;97580.00;;;18.60
11321;BMP180;5715;48.234;14.320;2023-03-31T09:23:52;97594.00;;;19.00
11321;BMP180;5715;48.234;14.320;2023-03-31T09:27:13;97604.00;;;19.40
11321;BMP180;5715;48.234;14.320;2023-03-31T09:30:23;97593.00;;;19.30
11321;BMP180;5715;48.234;14.320;2023-03-31T09:33:30;97638.00;;;19.90
11321;BMP180;5715;48.234;14.320;2023-03-31T09:36:21;97641.00;;;19.80
11321;BMP180;5715;48.234;14.320;2023-03-31T09:39:12;97669.00;;;20.00
11321;BMP180;5715;48.234;14.320;2023-03-31T09:42:01;97634.00;;;19.80
11321;BMP180;5715;48.234;14.320;2023-03-31T09:44:48;97613.00;;;20.10
11321;BMP180;5715;48.234;14.320;2023-03-31T09:47:43;97596.00;;;19.90
11321;BMP180;5715;48.234;14.320;2023-03-31T09:50:43;97561.00;;;19.50
11321;BMP180;5715;48.234;14.320;2023-03-31T09:53:49;97530.00;;;20.00
11321;BMP180;5715;48.234;14.320;2023-03-31T09:56:51;97510.00;;;20.20
11321;BMP180;5715;48.234;14.320;2023-03-31T09:59:40;97481.00;;;20.30
11321;BMP180;5715;48.234;14.320;2023-03-31T10:02:36;97455.00;;;20.40
11321;BMP180;5715;48.234;14.320;2023-03-31T10:05:33;97456.00;;;20.50
11321;BMP180;5715;48.234;14.320;2023-03-31T10:11:18;97448.00;;;20.50
11321;BMP180;5715;48.234;14.320;2023-03-31T10:14:13;97465.00;;;20.80
11321;BMP180;5715;48.234;14.320;2023-03-31T10:17:04;97455.00;;;21.20
11321;BMP180;5715;48.234;14.320;2023-03-31T10:20:04;97440.00;;;21.80
11321;BMP180;5715;48.234;14.320;2023-03-31T10:22:53;97410.00;;;21.90
11321;BMP180;5715;48.234;14.320;2023-03-31T10:25:42;97422.00;;;22.20
11321;BMP180;5715;48.234;14.320;2023-03-31T10:28:34;97425.00;;;22.40
11321;BMP180;5715;48.234;14.320;2023-03-31T10:31:35;97408.00;;;22.50
11321;BMP180;5715;48.234;14.320;2023-03-31T10:34:23;97390.00;;;22.90
11321;BMP180;5715;48.234;14.320;2023-03-31T10:37:18;97409.00;;;23.40
11321;BMP180;5715;48.234;14.320;2023-03-31T10:40:13;97414.00;;;23.60
11321;BMP180;5715;48.234;14.320;2023-03-31T10:45:59;97395.00;;;23.30
11321;BMP180;5715;48.234;14.320;2023-03-31T10:48:47;97395.00;;;23.10
11321;BMP180;5715;48.234;14.320;2023-03-31T10:51:34;97418.00;;;22.70
11321;BMP180;5715;48.234;14.320;2023-03-31T10:54:22;97430.00;;;22.50
11321;BMP180;5715;48.234;14.320;2023-03-31T10:57:10;97459.00;;;22.60
11321;BMP180;5715;48.234;14.320;2023-03-31T11:00:35;97466.00;;;22.40
11321;BMP180;5715;48.234;14.320;2023-03-31T11:17:04;97363.00;;;23.60
11321;BMP180;5715;48.234;14.320;2023-03-31T11:26:24;97344.00;;;24.00
11321;BMP180;5715;48.234;14.320;2023-03-31T11:30:26;97340.00;;;23.90
11321;BMP180;5715;48.234;14.320;2023-03-31T11:43:47;97326.00;;;24.10
11321;BMP180;5715;48.234;14.320;2023-03-31T11:49:29;97299.00;;;24.90
11321;BMP180;5715;48.234;14.320;2023-03-31T11:52:28;97293.00;;;24.60
11321;BMP180;5715;48.234;14.320;2023-03-31T11:55:24;97274.00;;;24.80
11321;BMP180;5715;48.234;14.320;2023-03-31T11:58:26;97272.00;;;24.60
11321;BMP180;5715;48.234;14.320;2023-03-31T12:04:24;97266.00;;;25.30
11321;BMP180;5715;48.234;14.320;2023-03-31T12:07:28;97268.00;;;24.50
11321;BMP180;5715;48.234;14.320;2023-03-31T12:10:34;97265.00;;;25.00
11321;BMP180;5715;48.234;14.320;2023-03-31T12:17:14;97235.00;;;24.10
11321;BMP180;5715;48.234;14.320;2023-03-31T12:20:20;97221.00;;;24.50
11321;BMP180;5715;48.234;14.320;2023-03-31T12:23:17;97225.00;;;24.20
11321;BMP180;5715;48.234;14.320;2023-03-31T12:33:02;97238.00;;;24.00
11321;BMP180;5715;48.234;14.320;2023-03-31T12:46:41;97235.00;;;23.70
11321;BMP180;5715;48.234;14.320;2023-03-31T12:50:12;97212.00;;;23.20
11321;BMP180;5715;48.234;14.320;2023-03-31T12:57:02;97222.00;;;22.70
11321;BMP180;5715;48.234;14.320;2023-03-31T13:04:29;97192.00;;;23.20
11321;BMP180;5715;48.234;14.320;2023-03-31T13:06:59;97164.00;;;23.20
11321;BMP180;5715;48.234;14.320;2023-03-31T13:09:48;97183.00;;;23.10
11321;BMP180;5715;48.234;14.320;2023-03-31T13:12:40;97181.00;;;22.70
11321;BMP180;5715;48.234;14.320;2023-03-31T13:15:29;97190.00;;;22.60
11321;BMP180;5715;48.234;14.320;2023-03-31T13:18:20;97198.00;;;22.60
11321;BMP180;5715;48.234;14.320;2023-03-31T13:21:08;97201.00;;;22.20
11321;BMP180;5715;48.234;14.320;2023-03-31T13:24:00;97192.00;;;22.00
11321;BMP180;5715;48.234;14.320;2023-03-31T13:26:49;97201.00;;;22.00
11321;BMP180;5715;48.234;14.320;2023-03-31T13:29:44;97194.00;;;22.00
11321;BMP180;5715;48.234;14.320;2023-03-31T13:32:32;97209.00;;;21.90
11321;BMP180;5715;48.234;14.320;2023-03-31T13:35:27;97222.00;;;21.80
11321;BMP180;5715;48.234;14.320;2023-03-31T13:45:37;97400.00;;;18.00
11321;BMP180;5715;48.234;14.320;2023-03-31T13:48:49;97285.00;;;17.80
11321;BMP180;5715;48.234;14.320;2023-03-31T13:51:58;97201.00;;;17.60
11321;BMP180;5715;48.234;14.320;2023-03-31T13:55:32;97211.00;;;17.80
11321;BMP180;5715;48.234;14.320;2023-03-31T14:02:46;97223.00;;;17.90
11321;BMP180;5715;48.234;14.320;2023-03-31T14:06:06;97228.00;;;18.00
11321;BMP180;5715;48.234;14.320;2023-03-31T14:09:18;97241.00;;;17.80
11321;BMP180;5715;48.234;14.320;2023-03-31T14:12:34;97231.00;;;17.90
11321;BMP180;5715;48.234;14.320;2023-03-31T14:15:21;97232.00;;;17.90
11321;BMP180;5715;48.234;14.320;2023-03-31T14:18:15;97227.00;;;17.90
11321;BMP180;5715;48.234;14.320;2023-03-31T14:21:26;97221.00;;;18.00
11321;BMP180;5715;48.234;14.320;2023-03-31T14:31:36;97187.00;;;18.50
11321;BMP180;5715;48.234;14.320;2023-03-31T14:37:40;97163.00;;;18.70
11321;BMP180;5715;48.234;14.320;2023-03-31T14:40:27;97169.00;;;18.90
11321;BMP180;5715;48.234;14.320;2023-03-31T14:43:22;97179.00;;;18.90
11321;BMP180;5715;48.234;14.320;2023-03-31T14:46:19;97179.00;;;19.10
11321;BMP180;5715;48.234;14.320;2023-03-31T14:49:35;97174.00;;;19.00
11321;BMP180;5715;48.234;14.320;2023-03-31T14:52:23;97158.00;;;19.10
11321;BMP180;5715;48.234;14.320;2023-03-31T14:55:16;97145.00;;;19.10
11321;BMP180;5715;48.234;14.320;2023-03-31T14:58:04;97145.00;;;19.10
11321;BMP180;5715;48.234;14.320;2023-03-31T15:00:53;97145.00;;;19.10
11321;BMP180;5715;48.234;14.320;2023-03-31T15:03:41;97133.00;;;19.10
11321;BMP180;5715;48.234;14.320;2023-03-31T15:06:30;97123.00;;;18.90
11321;BMP180;5715;48.234;14.320;2023-03-31T15:09:32;97121.00;;;18.70
11321;BMP180;5715;48.234;14.320;2023-03-31T15:12:22;97128.00;;;18.70
11321;BMP180;5715;48.234;14.320;2023-03-31T15:15:12;97133.00;;;18.70
11321;BMP180;5715;48.234;14.320;2023-03-31T15:18:00;97123.00;;;18.90
11321;BMP180;5715;48.234;14.320;2023-03-31T15:20:48;97119.00;;;18.60
11321;BMP180;5715;48.234;14.320;2023-03-31T15:23:39;97128.00;;;18.70
11321;BMP180;5715;48.234;14.320;2023-03-31T15:26:39;97123.00;;;18.70
11321;BMP180;5715;48.234;14.320;2023-03-31T15:29:44;97118.00;;;18.90
11321;BMP180;5715;48.234;14.320;2023-03-31T15:32:38;97118.00;;;19.00
11321;BMP180;5715;48.234;14.320;2023-03-31T15:35:34;97120.00;;;18.90
11321;BMP180;5715;48.234;14.320;2023-03-31T15:38:26;97112.00;;;18.90
11321;BMP180;5715;48.234;14.320;2023-03-31T15:41:16;97132.00;;;18.90
11321;BMP180;5715;48.234;14.320;2023-03-31T15:47:37;97128.00;;;18.80
11321;BMP180;5715;48.234;14.320;2023-03-31T15:50:33;97145.00;;;18.80
11321;BMP180;5715;48.234;14.320;2023-03-31T15:53:46;97156.00;;;18.70
11321;BMP180;5715;48.234;14.320;2023-03-31T15:56:43;97162.00;;;18.70
11321;BMP180;5715;48.234;14.320;2023-03-31T15:59:50;97157.00;;;18.50
11321;BMP180;5715;48.234;14.320;2023-03-31T16:02:44;97164.00;;;18.50
11321;BMP180;5715;48.234;14.320;2023-03-31T16:05:52;97155.00;;;18.20
11321;BMP180;5715;48.234;14.320;2023-03-31T16:08:52;97173.00;;;18.30
11321;BMP180;5715;48.234;14.320;2023-03-31T16:11:51;97178.00;;;18.40
11321;BMP180;5715;48.234;14.320;2023-03-31T16:17:53;97176.00;;;18.20
11321;BMP180;5715;48.234;14.320;2023-03-31T16:20:52;97179.00;;;18.40
11321;BMP180;5715;48.234;14.320;2023-03-31T16:23:41;97168.00;;;18.00
11321;BMP180;5715;48.234;14.320;2023-03-31T16:26:31;97169.00;;;18.50
11321;BMP180;5715;48.234;14.320;2023-03-31T16:29:21;97172.00;;;18.10
11321;BMP180;5715;48.234;14.320;2023-03-31T16:32:13;97181.00;;;18.00
11321;BMP180;5715;48.234;14.320;2023-03-31T16:35:04;97171.00;;;18.30
11321;BMP180;5715;48.234;14.320;2023-03-31T16:37:55;97182.00;;;18.30
11321;BMP180;5715;48.234;14.320;2023-03-31T16:40:49;97191.00;;;18.20
11321;BMP180;5715;48.234;14.320;2023-03-31T16:43:38;97183.00;;;18.30
11321;BMP180;5715;48.234;14.320;2023-03-31T16:46:26;97194.00;;;18.20
11321;BMP180;5715;48.234;14.320;2023-03-31T16:49:14;97195.00;;;18.10
11321;BMP180;5715;48.234;14.320;2023-03-31T16:52:02;97200.00;;;18.10
11321;BMP180;5715;48.234;14.320;2023-03-31T16:54:51;97196.00;;;18.10
11321;BMP180;5715;48.234;14.320;2023-03-31T16:57:38;97196.00;;;18.20
11321;BMP180;5715;48.234;14.320;2023-03-31T17:00:26;97190.00;;;18.10
11321;BMP180;5715;48.234;14.320;2023-03-31T17:03:14;97186.00;;;18.20
11321;BMP180;5715;48.234;14.320;2023-03-31T17:06:10;97185.00;;;18.50
11321;BMP180;5715;48.234;14.320;2023-03-31T17:08:58;97172.00;;;17.90
11321;BMP180;5715;48.234;14.320;2023-03-31T17:11:46;97166.00;;;18.20
11321;BMP180;5715;48.234;14.320;2023-03-31T17:14:35;97161.00;;;18.00
11321;BMP180;5715;48.234;14.320;2023-03-31T17:17:23;97169.00;;;18.10
11321;BMP180;5715;48.234;14.320;2023-03-31T17:20:11;97169.00;;;18.30
11321;BMP180;5715;48.234;14.320;2023-03-31T17:22:59;97158.00;;;18.20
11321;BMP180;5715;48.234;14.320;2023-03-31T17:25:52;97161.00;;;18.30
11321;BMP180;5715;48.234;14.320;2023-03-31T17:28:40;97167.00;;;18.10
11321;BMP180;5715;48.234;14.320;2023-03-31T17:31:28;97171.00;;;18.20
11321;BMP180;5715;48.234;14.320;2023-03-31T17:34:16;97179.00;;;18.30
11321;BMP180;5715;48.234;14.320;2023-03-31T17:37:04;97182.00;;;18.10
11321;BMP180;5715;48.234;14.320;2023-03-31T17:39:52;97179.00;;;18.10
11321;BMP180;5715;48.234;14.320;2023-03-31T17:42:42;97188.00;;;18.20
11321;BMP180;5715;48.234;14.320;2023-03-31T17:45:31;97206.00;;;18.10
11321;BMP180;5715;48.234;14.320;2023-03-31T17:48:21;97213.00;;;18.20
11321;BMP180;5715;48.234;14.320;2023-03-31T17:51:16;97215.00;;;17.60
11321;BMP180;5715;48.234;14.320;2023-03-31T17:54:04;97222.00;;;18.20
11321;BMP180;5715;48.234;14.320;2023-03-31T17:56:52;97215.00;;;17.90
11321;BMP180;5715;48.234;14.320;2023-03-31T17:59:40;97230.00;;;18.30
11321;BMP180;5715;48.234;14.320;2023-03-31T18:02:28;97228.00;;;18.20
11321;BMP180;5715;48.234;14.320;2023-03-31T18:05:15;97230.00;;;18.30
11321;BMP180;5715;48.234;14.320;2023-03-31T18:08:04;97245.00;;;17.90
11321;BMP180;5715;48.234;14.320;2023-03-31T18:10:52;97237.00;;;18.00
11321;BMP180;5715;48.234;14.320;2023-03-31T18:13:40;97239.00;;;18.10
11321;BMP180;5715;48.234;14.320;2023-03-31T18:16:29;97234.00;;;18.40
11321;BMP180;5715;48.234;14.320;2023-03-31T18:19:18;97228.00;;;18.40
11321;BMP180;5715;48.234;14.320;2023-03-31T18:22:05;97229.00;;;18.30
11321;BMP180;5715;48.234;14.320;2023-03-31T18:24:53;97226.00;;;18.10
11321;BMP180;5715;48.234;14.320;2023-03-31T18:27:41;97218.00;;;18.20
11321;BMP180;5715;48.234;14.320;2023-03-31T18:30:29;97215.00;;;18.00
11321;BMP180;5715;48.234;14.320;2023-03-31T18:33:17;97211.00;;;17.90
11321;BMP180;5715;48.234;14.320;2023-03-31T18:36:06;97206.00;;;17.80
11321;BMP180;5715;48.234;14.320;2023-03-31T18:38:54;97217.00;;;17.70
11321;BMP180;5715;48.234;14.320;2023-03-31T18:41:46;97208.00;;;17.70
11321;BMP180;5715;48.234;14.320;2023-03-31T18:44:35;97214.00;;;17.60
11321;BMP180;5715;48.234;14.320;2023-03-31T18:47:22;97218.00;;;17.50
11321;BMP180;5715;48.234;14.320;2023-03-31T18:50:10;97224.00;;;17.50
11321;BMP180;5715;48.234;14.320;2023-03-31T18:53:00;97227.00;;;17.40
11321;BMP180;5715;48.234;14.320;2023-03-31T18:55:49;97226.00;;;17.40
11321;BMP180;5715;48.234;14.320;2023-03-31T18:58:37;97225.00;;;17.40
11321;BMP180;5715;48.234;14.320;2023-03-31T19:01:25;97229.00;;;17.40
11321;BMP180;5715;48.234;14.320;2023-03-31T19:04:13;97241.00;;;17.50
11321;BMP180;5715;48.234;14.320;2023-03-31T19:07:01;97253.00;;;17.40
11321;BMP180;5715;48.234;14.320;2023-03-31T19:09:48;97247.00;;;17.40
11321;BMP180;5715;48.234;14.320;2023-03-31T19:12:36;97263.00;;;17.40